Terminal Aerodrome Forecast
Issued by NWS

Home | Current Version | Previous Version | Text Only | Print | Product List | Glossary On
Versions: 1 2 3 4 5 6 7 8 9 10 11 12 13 14 15 16 17 18 19 20 21 22 23 24 25 26 27 28
000
FTPA31 PHFO 281100
TAFMDY
TAF
PMDY 281130Z 2812/2912 25013KT P6SM FEW025 BKN050
     FM281500 26010KT P6SM VCSH SCT025 BKN035
     FM281800 28010KT P6SM VCSH SCT025 BKN035
     FM282300 31010KT P6SM -SHRA BKN025
     FM290500 34008KT P6SM BKN035
      AMD LTD TO CLD AND WIND=

USA.gov is the U.S. government's official web portal to all federal, state and local government web resources and services.